Time;durP1;ratioP1;P1;durP2;ratioP2;P2;SDS_P1;SDS_P2;PMS_P1;PMS_P2;Temp;Humidity;BMP_temperature;BMP_pressure;BME280_temperature;BME280_humidity;BME280_pressure;Samples;Min_cycle;Max_cycle;Signal;HPM_P1;HPM_P2
2020/12/15 00:00:04;;;;;;;10.47;7.83;;;5.60;99.90;;;;;;5048053;28;20893;-72
2020/12/15 00:02:29;;;;;;;7.47;6.40;;;5.60;99.90;;;;;;5047386;28;20215;-73
2020/12/15 00:04:55;;;;;;;8.30;7.30;;;5.60;99.90;;;;;;5047628;28;20771;-73
2020/12/15 00:07:21;;;;;;;8.57;7.77;;;5.60;99.90;;;;;;5048804;28;20210;-73
2020/12/15 00:09:46;;;;;;;7.93;7.17;;;5.70;99.90;;;;;;5049169;28;20261;-73
2020/12/15 00:12:12;;;;;;;8.03;7.23;;;5.70;99.90;;;;;;5049136;28;20559;-73
2020/12/15 00:14:37;;;;;;;8.30;7.47;;;5.80;99.90;;;;;;5049004;28;20208;-75
2020/12/15 00:17:03;;;;;;;7.20;6.50;;;5.70;99.90;;;;;;5048506;28;20237;-73
2020/12/15 00:19:28;;;;;;;8.80;7.17;;;5.70;99.90;;;;;;5049065;28;20656;-74
2020/12/15 00:21:54;;;;;;;8.27;7.47;;;5.70;99.90;;;;;;5049154;28;20204;-74
2020/12/15 00:24:19;;;;;;;7.40;6.63;;;5.70;99.90;;;;;;5048665;28;20584;-74
2020/12/15 00:26:45;;;;;;;8.17;7.37;;;5.80;99.90;;;;;;5048270;28;20205;-74
2020/12/15 00:29:16;;;;;;;8.00;7.30;;;5.80;99.90;;;;;;5048426;28;20217;-73
2020/12/15 00:31:41;;;;;;;8.57;7.40;;;5.70;99.90;;;;;;5049052;28;20209;-75
2020/12/15 00:34:07;;;;;;;8.23;7.07;;;5.70;99.90;;;;;;5048193;28;20449;-74
2020/12/15 00:36:33;;;;;;;7.53;6.53;;;5.70;99.90;;;;;;5048474;28;20185;-72
2020/12/15 00:38:59;;;;;;;6.93;6.23;;;5.60;99.90;;;;;;5048207;28;20670;-73
2020/12/15 00:41:24;;;;;;;7.13;6.43;;;5.60;99.90;;;;;;5047250;28;20202;-74
2020/12/15 00:43:50;;;;;;;8.53;7.73;;;5.60;99.90;;;;;;5047147;28;20457;-74
2020/12/15 00:46:16;;;;;;;8.77;7.10;;;5.60;99.90;;;;;;5047954;28;20175;-74
2020/12/15 00:48:42;;;;;;;7.03;6.20;;;5.70;99.90;;;;;;5048196;28;20572;-74
2020/12/15 00:51:16;;;;;;;7.73;7.03;;;5.70;99.90;;;;;;5048364;28;21113;-74
2020/12/15 00:53:43;;;;;;;7.00;6.40;;;5.80;99.90;;;;;;5047550;28;20610;-73
2020/12/15 00:56:09;;;;;;;8.50;7.50;;;5.80;99.90;;;;;;5048214;28;20947;-73
2020/12/15 00:58:36;;;;;;;8.20;7.50;;;5.80;99.90;;;;;;5048379;28;20523;-73
2020/12/15 01:01:06;;;;;;;9.27;6.60;;;5.70;99.90;;;;;;5048289;28;20179;-73
2020/12/15 01:03:32;;;;;;;7.80;7.10;;;5.70;99.90;;;;;;5047858;28;20456;-74
2020/12/15 01:05:58;;;;;;;8.60;6.57;;;5.70;99.90;;;;;;5047720;28;20508;-72
2020/12/15 01:08:23;;;;;;;6.80;6.20;;;5.70;99.90;;;;;;5046794;28;20536;-73
2020/12/15 01:10:51;;;;;;;8.57;7.67;;;5.80;99.90;;;;;;5047935;28;20186;-73
2020/12/15 01:13:16;;;;;;;8.00;7.20;;;5.90;99.90;;;;;;5046818;28;20742;-73
2020/12/15 01:15:42;;;;;;;8.93;8.07;;;6.00;99.90;;;;;;5048044;28;20456;-73
2020/12/15 01:18:07;;;;;;;8.10;7.30;;;5.90;99.90;;;;;;5047887;28;20642;-72
2020/12/15 01:20:33;;;;;;;7.87;7.07;;;5.90;99.90;;;;;;5047913;28;20658;-74
2020/12/15 01:22:58;;;;;;;7.83;7.03;;;6.00;99.90;;;;;;5047798;28;20259;-73
2020/12/15 01:25:24;;;;;;;9.90;8.13;;;6.00;99.90;;;;;;5047930;28;20200;-74
2020/12/15 01:27:49;;;;;;;7.77;7.07;;;6.00;99.90;;;;;;5048156;28;20557;-75
2020/12/15 01:30:15;;;;;;;8.53;7.20;;;6.00;99.90;;;;;;5047473;28;20178;-74
2020/12/15 01:32:40;;;;;;;8.03;7.27;;;6.00;99.90;;;;;;5047731;28;20670;-74
2020/12/15 01:35:06;;;;;;;11.00;7.40;;;6.10;99.90;;;;;;5047916;28;20186;-74
2020/12/15 01:37:31;;;;;;;11.50;8.70;;;5.90;99.90;;;;;;5046565;28;20623;-74
2020/12/15 01:39:57;;;;;;;9.40;8.30;;;6.00;99.90;;;;;;5048209;28;20667;-74
2020/12/15 01:42:23;;;;;;;8.80;8.00;;;6.10;99.90;;;;;;5051327;28;20186;-73
2020/12/15 01:44:48;;;;;;;10.00;9.03;;;6.00;99.90;;;;;;5049142;28;20727;-74
2020/12/15 01:47:15;;;;;;;9.07;7.67;;;6.00;99.90;;;;;;5047832;28;20206;-74
2020/12/15 01:49:42;;;;;;;9.50;8.10;;;6.00;99.90;;;;;;5047130;28;20186;-72
2020/12/15 01:52:07;;;;;;;9.53;8.57;;;6.00;99.90;;;;;;5046914;28;20494;-74
2020/12/15 01:54:33;;;;;;;9.20;8.40;;;5.90;99.90;;;;;;5047237;28;20870;-73
2020/12/15 01:56:59;;;;;;;10.10;7.73;;;6.00;99.90;;;;;;5046390;28;20198;-74
2020/12/15 01:59:27;;;;;;;8.07;7.37;;;6.00;99.90;;;;;;5047285;28;20546;-74
2020/12/15 02:01:52;;;;;;;9.10;7.30;;;6.00;99.90;;;;;;5046804;28;20190;-74
2020/12/15 02:04:18;;;;;;;9.57;8.60;;;6.10;99.90;;;;;;5046892;28;20472;-74
2020/12/15 02:06:46;;;;;;;9.00;8.17;;;6.10;99.90;;;;;;5046487;28;20207;-75
2020/12/15 02:09:12;;;;;;;8.37;7.57;;;6.10;99.90;;;;;;5046928;28;20204;-74
2020/12/15 02:11:37;;;;;;;8.13;7.30;;;6.10;99.90;;;;;;5046544;28;20417;-74
2020/12/15 02:14:03;;;;;;;8.40;7.50;;;6.10;99.90;;;;;;5046924;28;20443;-74
2020/12/15 02:16:30;;;;;;;8.67;7.87;;;6.20;99.90;;;;;;5046443;28;20241;-73
2020/12/15 02:18:56;;;;;;;8.40;7.70;;;6.20;99.90;;;;;;5045225;28;20650;-74
2020/12/15 02:21:21;;;;;;;8.87;8.03;;;6.20;99.90;;;;;;5045481;28;20428;-73
2020/12/15 02:23:47;;;;;;;8.57;7.67;;;6.20;99.90;;;;;;5046933;28;20318;-74
2020/12/15 02:26:12;;;;;;;8.90;7.90;;;6.20;99.90;;;;;;5046318;28;20186;-73
2020/12/15 02:28:38;;;;;;;8.20;7.40;;;6.30;99.90;;;;;;5046486;28;20207;-74
2020/12/15 02:31:04;;;;;;;7.90;7.10;;;6.30;99.90;;;;;;5046582;28;20666;-73
2020/12/15 02:33:30;;;;;;;7.70;7.00;;;6.30;99.90;;;;;;5046652;28;20200;-74
2020/12/15 02:35:56;;;;;;;7.40;6.70;;;6.30;99.90;;;;;;5046474;28;20174;-74
2020/12/15 02:38:22;;;;;;;7.60;6.90;;;6.30;99.90;;;;;;5046259;28;20494;-73
2020/12/15 02:40:48;;;;;;;7.53;6.70;;;6.40;99.90;;;;;;5046847;28;20449;-73
2020/12/15 02:43:13;;;;;;;7.27;6.57;;;6.30;99.90;;;;;;5045482;28;20318;-74
2020/12/15 02:45:39;;;;;;;8.47;7.50;;;6.40;99.90;;;;;;5046384;28;20277;-74
2020/12/15 02:48:04;;;;;;;7.20;6.53;;;6.40;99.90;;;;;;5046313;28;20206;-74
2020/12/15 02:50:30;;;;;;;6.57;5.97;;;6.30;99.90;;;;;;5046392;28;20234;-74
2020/12/15 02:52:56;;;;;;;6.97;6.37;;;6.40;99.90;;;;;;5046328;28;20182;-74
2020/12/15 02:55:22;;;;;;;8.47;7.70;;;6.30;99.90;;;;;;5046158;28;20599;-73
2020/12/15 02:57:49;;;;;;;6.97;6.20;;;6.30;99.90;;;;;;5045857;28;20278;-74
2020/12/15 03:00:16;;;;;;;7.33;6.63;;;6.30;99.90;;;;;;5045984;28;20485;-74
2020/12/15 03:02:42;;;;;;;8.17;6.80;;;6.40;99.90;;;;;;5045739;28;20464;-73
2020/12/15 03:05:07;;;;;;;7.80;7.10;;;6.30;99.90;;;;;;5046136;28;20416;-71
2020/12/15 03:07:33;;;;;;;7.93;7.13;;;6.20;99.90;;;;;;5045500;28;20276;-73
2020/12/15 03:09:59;;;;;;;8.47;7.00;;;6.30;99.90;;;;;;5044582;28;20178;-74
2020/12/15 03:12:27;;;;;;;7.40;6.80;;;6.40;99.90;;;;;;5046098;28;20183;-74
2020/12/15 03:14:53;;;;;;;9.13;8.23;;;6.40;99.90;;;;;;5046087;28;20427;-74
2020/12/15 03:17:18;;;;;;;7.97;6.93;;;6.40;99.90;;;;;;5046161;28;20910;-72
2020/12/15 03:19:44;;;;;;;8.63;7.80;;;6.40;99.90;;;;;;5049130;28;20539;-73
2020/12/15 03:22:13;;;;;;;8.90;8.10;;;6.40;99.90;;;;;;5049874;28;20614;-73
2020/12/15 03:24:39;;;;;;;7.67;6.87;;;6.40;99.90;;;;;;5047967;28;20679;-73
2020/12/15 03:27:05;;;;;;;8.17;7.47;;;6.40;99.90;;;;;;5045464;28;20511;-74
2020/12/15 03:29:30;;;;;;;7.23;6.53;;;6.50;99.90;;;;;;5045833;28;20193;-75
2020/12/15 03:31:56;;;;;;;7.73;6.90;;;6.40;99.90;;;;;;5045815;28;20214;-74
2020/12/15 03:34:22;;;;;;;7.43;6.73;;;6.50;99.90;;;;;;5046730;28;20656;-74
2020/12/15 03:36:47;;;;;;;9.50;7.83;;;6.50;99.90;;;;;;5048758;28;20202;-74
2020/12/15 03:39:13;;;;;;;7.87;7.07;;;6.50;99.90;;;;;;5047932;28;20202;-73
2020/12/15 03:41:38;;;;;;;8.10;7.27;;;6.50;99.90;;;;;;5048412;28;20205;-71
2020/12/15 03:44:04;;;;;;;8.27;7.47;;;6.50;99.90;;;;;;5046095;28;20301;-75
2020/12/15 03:46:30;;;;;;;8.10;7.37;;;6.60;99.90;;;;;;5045445;28;20197;-75
2020/12/15 03:48:55;;;;;;;8.07;7.27;;;6.60;99.90;;;;;;5045528;28;20203;-74
2020/12/15 03:51:21;;;;;;;8.80;7.90;;;6.50;99.90;;;;;;5045618;28;20186;-74
2020/12/15 03:53:46;;;;;;;9.73;7.10;;;6.40;99.90;;;;;;5045614;28;20190;-74
2020/12/15 03:56:12;;;;;;;10.63;8.00;;;6.40;99.90;;;;;;5045344;28;20190;-73
2020/12/15 03:58:38;;;;;;;7.93;7.13;;;6.40;99.90;;;;;;5045523;28;20236;-73
2020/12/15 04:01:04;;;;;;;7.87;7.13;;;6.50;99.90;;;;;;5045392;28;20195;-73
2020/12/15 04:03:30;;;;;;;8.07;7.33;;;6.50;99.90;;;;;;5045506;28;21057;-73
2020/12/15 04:05:57;;;;;;;8.47;7.60;;;6.50;99.90;;;;;;5043790;28;20558;-74
2020/12/15 04:08:23;;;;;;;12.23;7.90;;;6.50;99.90;;;;;;5045212;28;20223;-74
2020/12/15 04:10:49;;;;;;;9.00;7.63;;;6.50;99.90;;;;;;5045659;28;20519;-73
2020/12/15 04:13:16;;;;;;;7.67;6.90;;;6.50;99.90;;;;;;5045343;28;20189;-73
2020/12/15 04:15:42;;;;;;;8.50;7.70;;;6.50;99.90;;;;;;5044911;28;20789;-74
2020/12/15 04:18:08;;;;;;;7.93;7.13;;;6.50;99.90;;;;;;5045027;28;20465;-74
2020/12/15 04:20:33;;;;;;;9.73;7.93;;;6.50;99.90;;;;;;5046054;28;20187;-73
2020/12/15 04:22:59;;;;;;;8.43;7.73;;;6.50;99.90;;;;;;5048481;28;20475;-74
2020/12/15 04:25:24;;;;;;;9.00;8.20;;;6.50;99.90;;;;;;5049097;28;20548;-72
2020/12/15 04:27:50;;;;;;;8.53;7.77;;;6.50;99.90;;;;;;5049051;28;20251;-73
2020/12/15 04:30:16;;;;;;;7.60;6.90;;;6.50;99.90;;;;;;5047299;28;20600;-74
2020/12/15 04:32:41;;;;;;;9.37;8.57;;;6.50;99.90;;;;;;5047253;28;20183;-73
2020/12/15 04:35:07;;;;;;;8.30;7.50;;;6.50;99.90;;;;;;5047668;28;20558;-74
2020/12/15 04:37:32;;;;;;;8.60;7.83;;;6.50;99.90;;;;;;5048766;28;20281;-74
2020/12/15 04:39:58;;;;;;;8.10;7.40;;;6.50;99.90;;;;;;5048554;28;20679;-73
2020/12/15 04:42:23;;;;;;;8.23;7.43;;;6.50;99.90;;;;;;5048192;28;20694;-73
2020/12/15 04:44:50;;;;;;;7.80;7.00;;;6.50;99.90;;;;;;5048423;28;20662;-73
2020/12/15 04:47:33;;;;;;;7.70;7.00;;;6.60;99.90;;;;;;5048271;28;20208;-73
2020/12/15 04:50:04;;;;;;;8.30;7.50;;;6.60;99.90;;;;;;5048610;28;20417;-73
2020/12/15 04:52:54;;;;;;;8.63;7.00;;;6.60;99.90;;;;;;5048119;28;20417;-74
2020/12/15 04:55:21;;;;;;;8.13;7.33;;;6.60;99.90;;;;;;5044514;28;20460;-74
2020/12/15 04:57:47;;;;;;;9.87;6.93;;;6.60;99.90;;;;;;5048184;28;20881;-74
2020/12/15 05:00:14;;;;;;;7.60;7.00;;;6.60;99.90;;;;;;5046866;28;20431;-74
2020/12/15 05:02:48;;;;;;;8.40;7.57;;;6.60;99.90;;;;;;5048007;28;20735;-74
2020/12/15 05:05:14;;;;;;;9.50;8.50;;;6.60;99.90;;;;;;5046934;28;20770;-73
2020/12/15 05:07:42;;;;;;;8.70;7.80;;;6.60;99.90;;;;;;5047780;28;20440;-73
2020/12/15 05:10:09;;;;;;;8.27;7.53;;;6.70;99.90;;;;;;5048155;28;20456;-73
2020/12/15 05:12:35;;;;;;;9.80;7.90;;;6.70;99.90;;;;;;5048230;28;20449;-74
2020/12/15 05:15:02;;;;;;;9.23;8.33;;;6.70;99.90;;;;;;5047778;28;20421;-72
2020/12/15 05:17:34;;;;;;;10.13;8.17;;;6.80;99.90;;;;;;5047556;28;20444;-74
2020/12/15 05:19:59;;;;;;;9.10;8.30;;;6.80;99.90;;;;;;5049482;28;20470;-73
2020/12/15 05:22:46;;;;;;;8.93;8.13;;;6.80;99.90;;;;;;5054136;28;20421;-74
2020/12/15 05:25:44;;;;;;;9.27;8.20;;;6.70;99.90;;;;;;5048600;28;20182;-74
2020/12/15 05:28:12;;;;;;;9.73;8.30;;;6.60;99.90;;;;;;5024192;28;20825;-74
2020/12/15 05:30:38;;;;;;;9.83;8.93;;;6.60;99.90;;;;;;5025108;28;20422;-74
2020/12/15 05:33:13;;;;;;;11.97;9.97;;;6.60;99.90;;;;;;5024262;28;21007;-73
2020/12/15 05:35:38;;;;;;;10.77;8.40;;;6.60;99.90;;;;;;5008398;28;20244;-74
2020/12/15 05:38:05;;;;;;;10.93;9.30;;;6.60;99.90;;;;;;5024807;28;20449;-73
2020/12/15 05:40:31;;;;;;;9.30;8.40;;;6.60;99.90;;;;;;5025141;28;20182;-74
2020/12/15 05:43:01;;;;;;;9.93;8.80;;;6.60;99.90;;;;;;5025044;28;20478;-74
2020/12/15 05:45:31;;;;;;;11.07;9.97;;;6.70;99.90;;;;;;5024705;28;20422;-73
2020/12/15 05:48:07;;;;;;;12.63;9.87;;;6.70;99.90;;;;;;5024719;28;20487;-74
2020/12/15 05:50:34;;;;;;;12.00;10.70;;;6.70;99.90;;;;;;5008517;28;20428;-74
2020/12/15 05:53:02;;;;;;;11.93;10.50;;;6.60;99.90;;;;;;5024906;28;20489;-72
2020/12/15 05:55:28;;;;;;;11.47;10.37;;;6.80;99.90;;;;;;5008035;28;20433;-74
2020/12/15 05:57:55;;;;;;;13.60;12.20;;;6.70;99.90;;;;;;5024751;28;20499;-73
2020/12/15 06:00:24;;;;;;;14.83;13.23;;;6.70;99.90;;;;;;5024521;28;20417;-74
2020/12/15 06:03:03;;;;;;;16.00;14.50;;;6.80;99.90;;;;;;5027378;28;20480;-73
2020/12/15 06:05:31;;;;;;;12.60;11.40;;;6.70;99.90;;;;;;5046946;28;20579;-74
2020/12/15 06:07:59;;;;;;;12.43;10.70;;;6.70;99.90;;;;;;5046784;28;20436;-73
2020/12/15 06:10:27;;;;;;;11.93;10.73;;;6.70;99.90;;;;;;5046975;28;20424;-73
2020/12/15 06:12:54;;;;;;;13.60;10.63;;;6.80;99.90;;;;;;5047056;28;20431;-70
2020/12/15 06:15:19;;;;;;;13.80;10.50;;;6.80;99.90;;;;;;5047039;28;20439;-73
2020/12/15 06:17:50;;;;;;;11.37;9.27;;;6.80;99.90;;;;;;5046781;28;20981;-72
2020/12/15 06:20:19;;;;;;;11.03;9.90;;;6.80;99.90;;;;;;5046907;28;20189;-73
2020/12/15 06:22:53;;;;;;;9.80;8.80;;;6.80;99.90;;;;;;5045119;28;20835;-71
2020/12/15 06:25:30;;;;;;;9.27;8.37;;;6.90;99.90;;;;;;5046751;28;20409;-72
2020/12/15 06:28:06;;;;;;;9.17;8.20;;;6.80;99.90;;;;;;5046524;28;20437;-75
2020/12/15 06:30:33;;;;;;;9.87;8.90;;;6.80;99.90;;;;;;5046475;28;20490;-73
2020/12/15 06:33:04;;;;;;;10.40;9.30;;;6.90;99.90;;;;;;5046406;28;20995;-73
2020/12/15 06:35:31;;;;;;;10.63;9.50;;;6.90;99.90;;;;;;5046184;28;20417;-72
2020/12/15 06:37:56;;;;;;;9.67;8.63;;;6.90;99.90;;;;;;5046313;28;20928;-73
2020/12/15 06:40:22;;;;;;;11.40;9.67;;;7.10;99.90;;;;;;5046685;28;20421;-73
2020/12/15 06:42:53;;;;;;;11.00;9.53;;;7.00;99.90;;;;;;5045163;28;20201;-72
2020/12/15 06:45:23;;;;;;;10.33;9.33;;;7.00;99.90;;;;;;5045805;28;20182;-72
2020/12/15 06:48:00;;;;;;;9.83;8.80;;;6.90;99.90;;;;;;5045999;28;20425;-73
2020/12/15 06:50:26;;;;;;;10.67;9.40;;;6.90;99.90;;;;;;5046171;28;20421;-73
2020/12/15 06:52:52;;;;;;;10.33;9.40;;;7.00;99.90;;;;;;5046022;28;20815;-73
2020/12/15 06:55:28;;;;;;;10.37;9.37;;;7.00;99.90;;;;;;5045824;28;20463;-71
2020/12/15 06:57:58;;;;;;;9.77;8.80;;;6.90;99.90;;;;;;5044576;28;20797;-72
2020/12/15 07:00:36;;;;;;;10.43;9.30;;;6.90;99.90;;;;;;5044794;28;20425;-73
2020/12/15 07:03:03;;;;;;;9.70;8.90;;;6.90;99.90;;;;;;5046041;28;20552;-73
2020/12/15 07:05:28;;;;;;;9.60;8.80;;;6.80;99.90;;;;;;5046030;28;20441;-73
2020/12/15 07:07:59;;;;;;;11.53;9.33;;;6.90;99.90;;;;;;5045698;28;20471;-74
2020/12/15 07:10:27;;;;;;;11.30;9.50;;;6.90;99.90;;;;;;5046309;28;20678;-73
2020/12/15 07:12:53;;;;;;;10.77;9.67;;;6.90;99.90;;;;;;5045954;28;20432;-73
2020/12/15 07:15:20;;;;;;;11.07;9.93;;;7.00;99.90;;;;;;5045933;28;20431;-73
2020/12/15 07:17:51;;;;;;;11.67;10.03;;;6.90;99.90;;;;;;5045897;28;20492;-73
2020/12/15 07:20:18;;;;;;;11.63;9.90;;;6.80;99.90;;;;;;5044340;28;20814;-73
2020/12/15 07:22:44;;;;;;;13.10;9.10;;;6.90;99.90;;;;;;5045604;28;20515;-72
2020/12/15 07:25:12;;;;;;;10.07;9.17;;;6.80;99.90;;;;;;5044743;28;20956;-73
2020/12/15 07:27:41;;;;;;;9.93;8.93;;;6.90;99.90;;;;;;5045606;28;20520;-73
2020/12/15 07:30:15;;;;;;;10.07;9.17;;;6.80;99.90;;;;;;5045657;28;20436;-73
2020/12/15 07:32:42;;;;;;;13.73;10.73;;;6.90;99.90;;;;;;5046012;28;20420;-73
2020/12/15 07:35:17;;;;;;;12.13;10.10;;;6.90;99.90;;;;;;5046400;28;20508;-71
2020/12/15 07:37:44;;;;;;;10.87;9.80;;;6.90;99.90;;;;;;5032095;28;20444;-73
2020/12/15 07:40:12;;;;;;;11.70;10.50;;;7.00;99.90;;;;;;5045620;28;21036;-75
2020/12/15 07:42:39;;;;;;;10.87;9.87;;;7.00;99.90;;;;;;5045260;28;20467;-73
2020/12/15 07:45:10;;;;;;;11.60;10.50;;;7.10;99.90;;;;;;5045857;28;20948;-73
2020/12/15 07:47:43;;;;;;;11.70;10.47;;;7.10;99.90;;;;;;5045341;28;21052;-74
2020/12/15 07:50:09;;;;;;;11.70;8.93;;;7.10;99.90;;;;;;5044214;28;20452;-73
2020/12/15 07:52:38;;;;;;;11.83;10.60;;;7.00;99.90;;;;;;5045708;28;20933;-73
2020/12/15 07:55:09;;;;;;;11.00;9.80;;;7.10;99.90;;;;;;5045162;28;20417;-73
2020/12/15 07:57:37;;;;;;;9.83;9.00;;;7.10;99.90;;;;;;5047613;28;20433;-73
2020/12/15 08:00:11;;;;;;;9.77;8.87;;;7.20;99.90;;;;;;5048020;28;20429;-72
2020/12/15 08:02:38;;;;;;;13.40;9.03;;;7.30;99.90;;;;;;5047692;28;20428;-73
2020/12/15 08:05:10;;;;;;;12.60;10.70;;;7.20;99.90;;;;;;5049339;28;20444;-73
2020/12/15 08:07:50;;;;;;;12.37;9.50;;;7.30;99.90;;;;;;5048947;28;20945;-75
2020/12/15 08:10:23;;;;;;;9.70;8.80;;;7.30;99.90;;;;;;5049040;28;20448;-73
2020/12/15 08:12:49;;;;;;;9.73;8.83;;;7.20;99.90;;;;;;5049351;28;20428;-70
2020/12/15 08:15:14;;;;;;;10.63;9.60;;;7.20;99.90;;;;;;5048881;28;20421;-70
2020/12/15 08:17:44;;;;;;;13.00;10.20;;;7.20;99.90;;;;;;5048834;28;20237;-71
2020/12/15 08:20:11;;;;;;;10.20;9.20;;;7.20;99.90;;;;;;5048840;28;20266;-72
2020/12/15 08:22:41;;;;;;;10.93;9.83;;;7.20;99.90;;;;;;5048602;28;20834;-73
2020/12/15 08:25:12;;;;;;;11.77;10.57;;;7.20;99.90;;;;;;5048874;28;20417;-72
2020/12/15 08:27:37;;;;;;;12.83;10.30;;;7.20;99.90;;;;;;5047277;28;20547;-72
2020/12/15 08:30:32;;;;;;;11.00;10.00;;;7.30;99.90;;;;;;5048849;28;20504;-73
2020/12/15 08:32:58;;;;;;;12.20;9.40;;;7.40;99.90;;;;;;5029111;28;20847;-73
2020/12/15 08:35:25;;;;;;;10.60;9.60;;;7.30;99.90;;;;;;5028542;28;20456;-73
2020/12/15 08:37:59;;;;;;;10.13;9.23;;;7.40;99.90;;;;;;5045658;28;20348;-75
2020/12/15 08:40:26;;;;;;;10.90;9.60;;;7.40;99.90;;;;;;5045899;28;20421;-71
2020/12/15 08:43:03;;;;;;;11.03;9.90;;;7.40;99.90;;;;;;5045871;28;20464;-71
2020/12/15 08:45:30;;;;;;;12.80;11.03;;;7.40;99.90;;;;;;5045492;28;20451;-73
2020/12/15 08:47:58;;;;;;;10.80;9.70;;;7.50;99.90;;;;;;5045902;28;20448;-72
2020/12/15 08:50:32;;;;;;;11.43;10.23;;;7.50;99.90;;;;;;5045461;28;20508;-73
2020/12/15 08:53:05;;;;;;;13.87;11.13;;;7.60;99.90;;;;;;5046014;28;20459;-74
2020/12/15 08:55:32;;;;;;;10.60;9.10;;;7.50;99.90;;;;;;5045494;28;20421;-73
2020/12/15 08:58:03;;;;;;;11.40;10.27;;;7.50;99.90;;;;;;5045855;28;20445;-72
2020/12/15 09:00:33;;;;;;;11.10;9.63;;;7.50;99.90;;;;;;5029763;28;20453;-73
2020/12/15 09:03:15;;;;;;;13.70;10.13;;;7.60;99.90;;;;;;5049427;28;20506;-72
2020/12/15 09:05:55;;;;;;;13.13;10.60;;;7.60;99.90;;;;;;5033787;28;20493;-72
2020/12/15 09:08:26;;;;;;;11.63;10.13;;;7.60;99.90;;;;;;5056612;28;20491;-74
2020/12/15 09:10:56;;;;;;;14.03;11.90;;;7.80;99.90;;;;;;5055073;28;20799;-74
2020/12/15 09:13:23;;;;;;;13.03;11.63;;;7.80;99.90;;;;;;5048184;28;20511;-74
2020/12/15 09:15:53;;;;;;;14.23;11.73;;;7.80;99.90;;;;;;5047804;28;20500;-73
2020/12/15 09:18:33;;;;;;;14.57;13.03;;;7.70;99.90;;;;;;5047679;28;20448;-74
2020/12/15 09:21:12;;;;;;;14.97;12.80;;;7.60;99.90;;;;;;5053494;28;20439;-74
2020/12/15 09:23:38;;;;;;;19.83;14.20;;;7.40;99.90;;;;;;5053144;28;20456;-74
2020/12/15 09:26:04;;;;;;;16.10;13.93;;;7.20;99.90;;;;;;5054717;28;20487;-73
2020/12/15 09:28:29;;;;;;;17.17;14.60;;;7.10;99.90;;;;;;5056126;28;20198;-71
2020/12/15 09:30:55;;;;;;;16.60;15.00;;;7.00;99.90;;;;;;5055503;28;20182;-73
2020/12/15 09:33:21;;;;;;;16.20;14.53;;;7.00;99.90;;;;;;5053469;28;20225;-74
2020/12/15 09:35:50;;;;;;;16.73;15.00;;;6.90;99.90;;;;;;5050534;28;20327;-72
2020/12/15 09:38:16;;;;;;;18.10;16.20;;;6.70;99.90;;;;;;5048726;28;20960;-73
2020/12/15 09:40:42;;;;;;;20.70;15.77;;;6.70;99.90;;;;;;5046545;28;20979;-74
2020/12/15 09:43:07;;;;;;;18.03;16.03;;;6.60;99.90;;;;;;5046000;28;20464;-74
2020/12/15 09:45:33;;;;;;;19.97;17.63;;;6.60;99.90;;;;;;5047207;28;20905;-74
2020/12/15 09:47:59;;;;;;;17.07;15.33;;;6.60;99.90;;;;;;5046169;28;20674;-73
2020/12/15 09:50:30;;;;;;;18.10;16.20;;;6.60;99.90;;;;;;5047390;28;20193;-75
2020/12/15 09:52:57;;;;;;;20.30;15.40;;;6.70;99.90;;;;;;5047078;28;20479;-74
2020/12/15 09:55:22;;;;;;;20.20;16.93;;;6.80;99.90;;;;;;5047407;28;20431;-73
2020/12/15 09:57:48;;;;;;;25.53;17.43;;;6.80;99.90;;;;;;5047472;28;20449;-74
2020/12/15 10:00:13;;;;;;;18.30;16.33;;;6.80;99.90;;;;;;5047411;28;20225;-73
2020/12/15 10:02:39;;;;;;;17.53;15.73;;;6.80;99.90;;;;;;5046898;28;20190;-73
2020/12/15 10:05:04;;;;;;;19.27;16.30;;;6.80;99.90;;;;;;5047271;28;20179;-74
2020/12/15 10:07:30;;;;;;;21.30;17.10;;;6.80;99.90;;;;;;5045184;28;20256;-74
2020/12/15 10:09:58;;;;;;;17.67;15.90;;;6.90;99.90;;;;;;5046999;28;20213;-73
2020/12/15 10:12:26;;;;;;;17.33;15.50;;;7.00;99.90;;;;;;5047021;28;20424;-74
2020/12/15 10:14:51;;;;;;;17.60;15.27;;;7.00;99.90;;;;;;5046622;28;20421;-73
2020/12/15 10:17:17;;;;;;;17.20;15.40;;;7.10;99.90;;;;;;5046515;28;20452;-74
2020/12/15 10:19:43;;;;;;;18.93;16.90;;;7.20;99.90;;;;;;5046469;28;20614;-73
2020/12/15 10:22:08;;;;;;;16.87;14.77;;;7.20;99.90;;;;;;5047188;28;20179;-74
2020/12/15 10:24:34;;;;;;;17.00;15.27;;;7.40;99.90;;;;;;5046904;28;20464;-72
2020/12/15 10:27:00;;;;;;;15.90;14.40;;;7.60;99.90;;;;;;5045006;28;20201;-73
2020/12/15 10:29:29;;;;;;;16.33;14.60;;;7.80;99.90;;;;;;5046817;28;20178;-72
2020/12/15 10:31:55;;;;;;;15.83;14.33;;;7.90;99.90;;;;;;5046871;28;20647;-72
2020/12/15 10:34:20;;;;;;;18.30;16.30;;;8.10;99.90;;;;;;5046718;28;20516;-74
2020/12/15 10:36:47;;;;;;;16.13;14.53;;;8.20;99.90;;;;;;5046464;28;20508;-73
2020/12/15 10:39:13;;;;;;;16.57;14.17;;;8.20;99.90;;;;;;5046448;28;20260;-73
2020/12/15 10:41:41;;;;;;;19.57;16.23;;;8.30;99.90;;;;;;5046330;28;20429;-73
2020/12/15 10:44:12;;;;;;;18.07;16.10;;;8.40;99.90;;;;;;5045130;28;20569;-73
2020/12/15 10:46:38;;;;;;;15.33;13.70;;;8.50;99.90;;;;;;5046276;28;20420;-71
2020/12/15 10:49:04;;;;;;;15.97;14.37;;;8.50;99.90;;;;;;5046180;28;20433;-73
2020/12/15 10:51:29;;;;;;;16.00;13.73;;;8.50;99.90;;;;;;5046088;28;20277;-74
2020/12/15 10:53:55;;;;;;;14.90;13.50;;;8.50;99.90;;;;;;5046065;28;20250;-72
2020/12/15 10:56:22;;;;;;;15.17;12.87;;;8.50;99.90;;;;;;5046112;28;20232;-73
2020/12/15 10:58:48;;;;;;;17.03;14.40;;;8.40;99.90;;;;;;5046232;28;20206;-74
2020/12/15 11:01:13;;;;;;;16.27;14.50;;;8.20;99.90;;;;;;5045007;28;20421;-73
2020/12/15 11:03:39;;;;;;;16.10;14.40;;;8.20;99.90;;;;;;5046361;28;20257;-73
2020/12/15 11:06:04;;;;;;;18.10;16.30;;;8.20;99.90;;;;;;5045581;28;20650;-73
2020/12/15 11:08:30;;;;;;;15.33;13.73;;;8.20;99.90;;;;;;5046156;28;20194;-73
2020/12/15 11:10:56;;;;;;;15.30;13.67;;;8.20;99.90;;;;;;5044758;28;20178;-72
2020/12/15 11:13:22;;;;;;;17.47;13.83;;;8.30;99.90;;;;;;5046176;28;20507;-73
2020/12/15 11:15:47;;;;;;;13.60;12.30;;;8.30;99.90;;;;;;5045635;28;20190;-73
2020/12/15 11:18:13;;;;;;;14.40;12.90;;;8.40;99.90;;;;;;5045672;28;20303;-74
2020/12/15 11:20:39;;;;;;;13.30;12.00;;;8.30;99.90;;;;;;5045909;28;20213;-74
2020/12/15 11:23:05;;;;;;;16.93;13.47;;;8.30;99.90;;;;;;5045707;28;20217;-73
2020/12/15 11:25:31;;;;;;;14.30;12.90;;;8.30;99.90;;;;;;5045584;28;20171;-74
2020/12/15 11:27:57;;;;;;;17.40;12.90;;;8.40;99.90;;;;;;5044412;28;20440;-74
2020/12/15 11:30:22;;;;;;;13.93;12.63;;;8.40;99.90;;;;;;5032341;28;20465;-73
2020/12/15 11:32:48;;;;;;;13.20;11.80;;;8.40;99.90;;;;;;5049844;28;20182;-73
2020/12/15 11:35:14;;;;;;;17.80;14.10;;;8.30;99.90;;;;;;5049820;28;20182;-70
2020/12/15 11:37:44;;;;;;;15.73;14.03;;;8.40;99.90;;;;;;5049901;28;20198;-75
2020/12/15 11:40:11;;;;;;;13.00;11.67;;;8.30;99.90;;;;;;5050064;28;20170;-71
2020/12/15 11:42:40;;;;;;;14.00;11.60;;;8.30;99.90;;;;;;5049410;28;20503;-73
2020/12/15 11:45:07;;;;;;;14.37;12.20;;;8.30;99.90;;;;;;5049815;28;20425;-73
2020/12/15 11:47:33;;;;;;;14.07;12.10;;;8.30;99.90;;;;;;5049134;28;20436;-74
2020/12/15 11:50:00;;;;;;;13.77;12.27;;;8.30;99.90;;;;;;5048393;28;20424;-72
2020/12/15 11:52:26;;;;;;;13.57;12.17;;;8.40;99.90;;;;;;5049547;28;20189;-75
2020/12/15 11:54:52;;;;;;;18.73;14.07;;;8.30;99.90;;;;;;5049604;28;20421;-72
2020/12/15 11:57:18;;;;;;;15.73;14.23;;;8.30;99.90;;;;;;5049047;28;20925;-73
2020/12/15 11:59:44;;;;;;;13.70;12.27;;;8.30;99.90;;;;;;5049300;28;20183;-73
2020/12/15 12:02:12;;;;;;;16.00;13.43;;;8.30;99.90;;;;;;5047779;28;20428;-74
2020/12/15 12:04:38;;;;;;;13.97;12.47;;;8.30;99.90;;;;;;5049099;28;20464;-73
2020/12/15 12:07:09;;;;;;;14.10;12.17;;;8.20;99.90;;;;;;5049110;28;20981;-73
2020/12/15 12:09:35;;;;;;;15.50;13.43;;;8.30;99.90;;;;;;5049161;28;20539;-73
2020/12/15 12:12:02;;;;;;;13.70;11.57;;;8.20;99.90;;;;;;5049361;28;20976;-73
2020/12/15 12:14:27;;;;;;;11.93;10.73;;;8.30;99.90;;;;;;5047777;28;20436;-74
2020/12/15 12:16:53;;;;;;;14.20;11.13;;;8.20;99.90;;;;;;5048646;28;20804;-72
2020/12/15 12:19:18;;;;;;;16.80;10.60;;;8.30;99.90;;;;;;5047785;28;20194;-73
2020/12/15 12:21:44;;;;;;;11.30;10.30;;;8.30;99.90;;;;;;5047410;28;20186;-73
2020/12/15 12:24:10;;;;;;;13.60;11.60;;;8.40;99.90;;;;;;5048825;28;20213;-74
2020/12/15 12:26:36;;;;;;;13.10;11.73;;;8.30;99.90;;;;;;5047265;28;20443;-73
2020/12/15 12:29:02;;;;;;;13.57;12.17;;;8.40;99.90;;;;;;5048875;28;20779;-73
2020/12/15 12:31:28;;;;;;;13.80;11.97;;;8.40;99.90;;;;;;5048523;28;20233;-72
2020/12/15 12:33:53;;;;;;;13.03;11.63;;;8.40;99.90;;;;;;5048581;28;20721;-73
2020/12/15 12:36:19;;;;;;;14.37;12.90;;;8.50;99.90;;;;;;5048485;28;20274;-73
2020/12/15 12:38:45;;;;;;;14.33;12.90;;;8.50;99.90;;;;;;5048436;28;20312;-73
2020/12/15 12:41:16;;;;;;;13.80;12.30;;;8.40;99.90;;;;;;5048374;28;20233;-74
2020/12/15 12:43:43;;;;;;;16.00;12.60;;;8.40;99.90;;;;;;5048490;28;20195;-72
2020/12/15 12:46:14;;;;;;;12.87;11.47;;;8.40;99.90;;;;;;5048538;28;20413;-73
2020/12/15 12:48:40;;;;;;;12.83;11.43;;;8.40;99.90;;;;;;5048927;28;20483;-72